sensor_id;sensor_type;location;lat;lon;timestamp;P1;durP1;ratioP1;P2;durP2;ratioP2
29500;SDS011;16450;50.288;10.966;2024-03-08T00:00:37;39.40;;;22.03;;
29500;SDS011;16450;50.288;10.966;2024-03-08T00:03:42;56.53;;;27.33;;
29500;SDS011;16450;50.288;10.966;2024-03-08T00:06:44;62.57;;;28.70;;
29500;SDS011;16450;50.288;10.966;2024-03-08T00:09:47;46.83;;;23.00;;
29500;SDS011;16450;50.288;10.966;2024-03-08T00:12:49;43.90;;;23.03;;
29500;SDS011;16450;50.288;10.966;2024-03-08T00:15:52;42.10;;;22.47;;
29500;SDS011;16450;50.288;10.966;2024-03-08T00:18:54;42.47;;;21.23;;
29500;SDS011;16450;50.288;10.966;2024-03-08T00:21:56;42.13;;;22.03;;
29500;SDS011;16450;50.288;10.966;2024-03-08T00:24:57;39.20;;;21.17;;
29500;SDS011;16450;50.288;10.966;2024-03-08T00:27:59;40.70;;;20.67;;
29500;SDS011;16450;50.288;10.966;2024-03-08T00:31:01;44.37;;;21.80;;
29500;SDS011;16450;50.288;10.966;2024-03-08T00:34:03;44.77;;;22.73;;
29500;SDS011;16450;50.288;10.966;2024-03-08T00:37:05;43.20;;;20.97;;
29500;SDS011;16450;50.288;10.966;2024-03-08T00:40:07;43.03;;;22.00;;
29500;SDS011;16450;50.288;10.966;2024-03-08T00:43:10;42.97;;;21.73;;
29500;SDS011;16450;50.288;10.966;2024-03-08T00:46:12;41.73;;;21.87;;
29500;SDS011;16450;50.288;10.966;2024-03-08T00:49:16;42.10;;;20.83;;
29500;SDS011;16450;50.288;10.966;2024-03-08T00:52:18;40.70;;;21.57;;
29500;SDS011;16450;50.288;10.966;2024-03-08T00:55:20;40.30;;;20.80;;
29500;SDS011;16450;50.288;10.966;2024-03-08T00:58:22;41.33;;;22.00;;
29500;SDS011;16450;50.288;10.966;2024-03-08T01:01:25;39.63;;;20.03;;
29500;SDS011;16450;50.288;10.966;2024-03-08T01:04:27;46.83;;;23.23;;
29500;SDS011;16450;50.288;10.966;2024-03-08T01:07:33;45.47;;;22.53;;
29500;SDS011;16450;50.288;10.966;2024-03-08T01:10:37;41.47;;;21.23;;
29500;SDS011;16450;50.288;10.966;2024-03-08T01:13:39;42.07;;;21.43;;
29500;SDS011;16450;50.288;10.966;2024-03-08T01:16:40;39.43;;;20.60;;
29500;SDS011;16450;50.288;10.966;2024-03-08T01:19:42;43.63;;;21.67;;
29500;SDS011;16450;50.288;10.966;2024-03-08T01:22:46;34.97;;;20.07;;
29500;SDS011;16450;50.288;10.966;2024-03-08T01:25:48;41.87;;;20.93;;
29500;SDS011;16450;50.288;10.966;2024-03-08T01:28:57;39.27;;;20.33;;
29500;SDS011;16450;50.288;10.966;2024-03-08T01:32:00;40.27;;;20.50;;
29500;SDS011;16450;50.288;10.966;2024-03-08T01:35:03;42.00;;;21.83;;
29500;SDS011;16450;50.288;10.966;2024-03-08T01:38:05;41.73;;;20.93;;
29500;SDS011;16450;50.288;10.966;2024-03-08T01:41:07;37.40;;;20.30;;
29500;SDS011;16450;50.288;10.966;2024-03-08T01:44:10;42.27;;;20.40;;
29500;SDS011;16450;50.288;10.966;2024-03-08T01:47:12;42.47;;;21.67;;
29500;SDS011;16450;50.288;10.966;2024-03-08T01:50:14;40.57;;;21.20;;
29500;SDS011;16450;50.288;10.966;2024-03-08T01:53:17;40.63;;;20.73;;
29500;SDS011;16450;50.288;10.966;2024-03-08T01:56:21;40.00;;;20.37;;
29500;SDS011;16450;50.288;10.966;2024-03-08T01:59:23;40.43;;;19.90;;
29500;SDS011;16450;50.288;10.966;2024-03-08T02:02:25;39.87;;;20.93;;
29500;SDS011;16450;50.288;10.966;2024-03-08T02:05:28;42.80;;;21.57;;
29500;SDS011;16450;50.288;10.966;2024-03-08T02:08:30;44.17;;;22.80;;
29500;SDS011;16450;50.288;10.966;2024-03-08T02:11:33;42.00;;;20.47;;
29500;SDS011;16450;50.288;10.966;2024-03-08T02:14:37;39.80;;;20.17;;
29500;SDS011;16450;50.288;10.966;2024-03-08T02:17:41;39.33;;;20.53;;
29500;SDS011;16450;50.288;10.966;2024-03-08T02:20:45;43.70;;;21.43;;
29500;SDS011;16450;50.288;10.966;2024-03-08T02:23:49;41.73;;;21.43;;
29500;SDS011;16450;50.288;10.966;2024-03-08T02:26:53;41.00;;;20.77;;
29500;SDS011;16450;50.288;10.966;2024-03-08T02:29:55;42.50;;;21.53;;
29500;SDS011;16450;50.288;10.966;2024-03-08T02:32:58;41.43;;;20.93;;
29500;SDS011;16450;50.288;10.966;2024-03-08T02:36:00;43.27;;;21.70;;
29500;SDS011;16450;50.288;10.966;2024-03-08T02:39:02;41.90;;;21.57;;
29500;SDS011;16450;50.288;10.966;2024-03-08T02:42:04;41.97;;;20.67;;
29500;SDS011;16450;50.288;10.966;2024-03-08T02:45:07;41.53;;;21.40;;
29500;SDS011;16450;50.288;10.966;2024-03-08T02:48:11;41.60;;;21.67;;
29500;SDS011;16450;50.288;10.966;2024-03-08T02:51:14;44.17;;;21.20;;
29500;SDS011;16450;50.288;10.966;2024-03-08T02:54:17;42.77;;;22.40;;
29500;SDS011;16450;50.288;10.966;2024-03-08T02:57:20;42.50;;;22.23;;
29500;SDS011;16450;50.288;10.966;2024-03-08T03:00:23;41.43;;;20.83;;
29500;SDS011;16450;50.288;10.966;2024-03-08T03:03:25;43.30;;;20.47;;
29500;SDS011;16450;50.288;10.966;2024-03-08T03:06:28;40.37;;;20.67;;
29500;SDS011;16450;50.288;10.966;2024-03-08T03:09:29;42.23;;;20.47;;
29500;SDS011;16450;50.288;10.966;2024-03-08T03:12:34;45.60;;;21.43;;
29500;SDS011;16450;50.288;10.966;2024-03-08T03:15:35;41.37;;;21.23;;
29500;SDS011;16450;50.288;10.966;2024-03-08T03:18:38;40.17;;;20.13;;
29500;SDS011;16450;50.288;10.966;2024-03-08T03:21:40;43.63;;;21.53;;
29500;SDS011;16450;50.288;10.966;2024-03-08T03:24:44;41.37;;;21.53;;
29500;SDS011;16450;50.288;10.966;2024-03-08T03:27:47;38.57;;;20.40;;
29500;SDS011;16450;50.288;10.966;2024-03-08T03:30:49;38.77;;;19.63;;
29500;SDS011;16450;50.288;10.966;2024-03-08T03:33:51;42.57;;;20.17;;
29500;SDS011;16450;50.288;10.966;2024-03-08T03:36:53;37.70;;;19.70;;
29500;SDS011;16450;50.288;10.966;2024-03-08T03:39:56;37.33;;;19.57;;
29500;SDS011;16450;50.288;10.966;2024-03-08T03:42:59;42.57;;;20.20;;
29500;SDS011;16450;50.288;10.966;2024-03-08T03:46:01;40.07;;;20.93;;
29500;SDS011;16450;50.288;10.966;2024-03-08T03:49:03;41.90;;;21.80;;
29500;SDS011;16450;50.288;10.966;2024-03-08T03:52:05;39.17;;;20.53;;
29500;SDS011;16450;50.288;10.966;2024-03-08T03:55:07;38.23;;;19.97;;
29500;SDS011;16450;50.288;10.966;2024-03-08T03:58:09;41.33;;;19.67;;
29500;SDS011;16450;50.288;10.966;2024-03-08T04:01:12;36.13;;;19.47;;
29500;SDS011;16450;50.288;10.966;2024-03-08T04:04:14;37.30;;;20.17;;
29500;SDS011;16450;50.288;10.966;2024-03-08T04:07:16;41.30;;;19.77;;
29500;SDS011;16450;50.288;10.966;2024-03-08T04:10:18;36.23;;;19.17;;
29500;SDS011;16450;50.288;10.966;2024-03-08T04:13:21;39.10;;;19.23;;
29500;SDS011;16450;50.288;10.966;2024-03-08T04:16:23;34.90;;;19.37;;
29500;SDS011;16450;50.288;10.966;2024-03-08T04:19:27;36.50;;;19.10;;
29500;SDS011;16450;50.288;10.966;2024-03-08T04:22:29;40.57;;;19.10;;
29500;SDS011;16450;50.288;10.966;2024-03-08T04:25:32;35.40;;;19.17;;
29500;SDS011;16450;50.288;10.966;2024-03-08T04:28:34;35.13;;;18.87;;
29500;SDS011;16450;50.288;10.966;2024-03-08T04:31:36;36.20;;;18.33;;
29500;SDS011;16450;50.288;10.966;2024-03-08T04:34:40;34.80;;;19.60;;
29500;SDS011;16450;50.288;10.966;2024-03-08T04:37:46;36.20;;;19.50;;
29500;SDS011;16450;50.288;10.966;2024-03-08T04:40:49;37.20;;;17.33;;
29500;SDS011;16450;50.288;10.966;2024-03-08T04:43:51;38.80;;;19.27;;
29500;SDS011;16450;50.288;10.966;2024-03-08T04:46:53;36.00;;;18.80;;
29500;SDS011;16450;50.288;10.966;2024-03-08T04:49:55;35.67;;;19.10;;
29500;SDS011;16450;50.288;10.966;2024-03-08T04:52:58;37.47;;;19.20;;
29500;SDS011;16450;50.288;10.966;2024-03-08T04:55:59;35.20;;;19.50;;
29500;SDS011;16450;50.288;10.966;2024-03-08T04:59:07;36.33;;;18.53;;
29500;SDS011;16450;50.288;10.966;2024-03-08T05:02:09;37.00;;;19.07;;
29500;SDS011;16450;50.288;10.966;2024-03-08T05:05:13;36.83;;;18.90;;
29500;SDS011;16450;50.288;10.966;2024-03-08T05:08:15;38.10;;;18.83;;
29500;SDS011;16450;50.288;10.966;2024-03-08T05:11:19;38.73;;;19.00;;
29500;SDS011;16450;50.288;10.966;2024-03-08T05:14:21;33.60;;;18.57;;
29500;SDS011;16450;50.288;10.966;2024-03-08T05:17:24;36.77;;;18.63;;
29500;SDS011;16450;50.288;10.966;2024-03-08T05:20:26;38.00;;;18.80;;
29500;SDS011;16450;50.288;10.966;2024-03-08T05:23:28;39.27;;;19.57;;
29500;SDS011;16450;50.288;10.966;2024-03-08T05:26:31;37.27;;;18.50;;
29500;SDS011;16450;50.288;10.966;2024-03-08T05:29:34;35.57;;;18.93;;
29500;SDS011;16450;50.288;10.966;2024-03-08T05:32:36;34.60;;;18.97;;
29500;SDS011;16450;50.288;10.966;2024-03-08T05:35:38;36.00;;;17.47;;
29500;SDS011;16450;50.288;10.966;2024-03-08T05:38:41;36.87;;;18.27;;
29500;SDS011;16450;50.288;10.966;2024-03-08T05:41:46;35.77;;;18.57;;
29500;SDS011;16450;50.288;10.966;2024-03-08T05:44:49;34.87;;;18.23;;
29500;SDS011;16450;50.288;10.966;2024-03-08T05:47:51;37.37;;;19.07;;
29500;SDS011;16450;50.288;10.966;2024-03-08T05:50:54;40.17;;;19.83;;
29500;SDS011;16450;50.288;10.966;2024-03-08T05:53:56;38.73;;;19.27;;
29500;SDS011;16450;50.288;10.966;2024-03-08T05:56:58;40.70;;;20.33;;
29500;SDS011;16450;50.288;10.966;2024-03-08T06:00:00;34.30;;;18.07;;
29500;SDS011;16450;50.288;10.966;2024-03-08T06:03:04;37.70;;;19.43;;
29500;SDS011;16450;50.288;10.966;2024-03-08T06:06:07;37.47;;;19.83;;
29500;SDS011;16450;50.288;10.966;2024-03-08T06:09:08;38.20;;;19.40;;
29500;SDS011;16450;50.288;10.966;2024-03-08T06:12:14;38.43;;;19.67;;
29500;SDS011;16450;50.288;10.966;2024-03-08T06:15:20;37.33;;;19.57;;
29500;SDS011;16450;50.288;10.966;2024-03-08T06:18:22;37.63;;;19.30;;
29500;SDS011;16450;50.288;10.966;2024-03-08T06:21:24;39.67;;;18.97;;
29500;SDS011;16450;50.288;10.966;2024-03-08T06:24:29;38.63;;;19.10;;
29500;SDS011;16450;50.288;10.966;2024-03-08T06:27:32;41.57;;;20.83;;
29500;SDS011;16450;50.288;10.966;2024-03-08T06:30:35;39.03;;;20.00;;
29500;SDS011;16450;50.288;10.966;2024-03-08T06:33:37;42.47;;;20.60;;
29500;SDS011;16450;50.288;10.966;2024-03-08T06:36:39;41.20;;;20.73;;
29500;SDS011;16450;50.288;10.966;2024-03-08T06:39:41;37.57;;;20.30;;
29500;SDS011;16450;50.288;10.966;2024-03-08T06:42:43;40.83;;;21.03;;
29500;SDS011;16450;50.288;10.966;2024-03-08T06:45:45;41.77;;;21.87;;
29500;SDS011;16450;50.288;10.966;2024-03-08T06:48:50;39.17;;;20.13;;
29500;SDS011;16450;50.288;10.966;2024-03-08T06:51:52;38.43;;;21.00;;
29500;SDS011;16450;50.288;10.966;2024-03-08T06:54:55;39.10;;;20.93;;
29500;SDS011;16450;50.288;10.966;2024-03-08T06:57:58;44.90;;;21.50;;
29500;SDS011;16450;50.288;10.966;2024-03-08T07:01:00;39.90;;;20.93;;
29500;SDS011;16450;50.288;10.966;2024-03-08T07:04:05;43.87;;;22.23;;
29500;SDS011;16450;50.288;10.966;2024-03-08T07:07:08;41.63;;;22.10;;
29500;SDS011;16450;50.288;10.966;2024-03-08T07:10:10;41.30;;;21.63;;
29500;SDS011;16450;50.288;10.966;2024-03-08T07:13:16;42.17;;;21.57;;
29500;SDS011;16450;50.288;10.966;2024-03-08T07:16:18;38.63;;;20.80;;
29500;SDS011;16450;50.288;10.966;2024-03-08T07:19:20;42.40;;;22.60;;
29500;SDS011;16450;50.288;10.966;2024-03-08T07:22:22;45.40;;;22.93;;
29500;SDS011;16450;50.288;10.966;2024-03-08T07:25:24;44.37;;;21.80;;
29500;SDS011;16450;50.288;10.966;2024-03-08T07:28:30;45.73;;;22.53;;
29500;SDS011;16450;50.288;10.966;2024-03-08T07:31:32;44.73;;;22.67;;
29500;SDS011;16450;50.288;10.966;2024-03-08T07:34:43;44.80;;;22.90;;
29500;SDS011;16450;50.288;10.966;2024-03-08T07:37:45;45.47;;;22.80;;
29500;SDS011;16450;50.288;10.966;2024-03-08T07:40:47;43.73;;;22.70;;
29500;SDS011;16450;50.288;10.966;2024-03-08T07:43:49;47.87;;;22.83;;
29500;SDS011;16450;50.288;10.966;2024-03-08T07:46:51;45.90;;;21.90;;
29500;SDS011;16450;50.288;10.966;2024-03-08T07:49:57;39.90;;;21.73;;
29500;SDS011;16450;50.288;10.966;2024-03-08T07:53:02;44.50;;;22.33;;
29500;SDS011;16450;50.288;10.966;2024-03-08T07:56:05;41.90;;;21.07;;
29500;SDS011;16450;50.288;10.966;2024-03-08T07:59:07;40.40;;;20.70;;
29500;SDS011;16450;50.288;10.966;2024-03-08T08:02:09;41.00;;;19.37;;
29500;SDS011;16450;50.288;10.966;2024-03-08T08:05:11;42.57;;;21.27;;
29500;SDS011;16450;50.288;10.966;2024-03-08T08:08:13;42.87;;;20.27;;
29500;SDS011;16450;50.288;10.966;2024-03-08T08:11:15;40.43;;;19.87;;
29500;SDS011;16450;50.288;10.966;2024-03-08T08:14:17;38.93;;;20.17;;
29500;SDS011;16450;50.288;10.966;2024-03-08T08:17:19;38.67;;;20.20;;
29500;SDS011;16450;50.288;10.966;2024-03-08T08:20:22;38.00;;;20.37;;
29500;SDS011;16450;50.288;10.966;2024-03-08T08:23:24;37.47;;;19.57;;
29500;SDS011;16450;50.288;10.966;2024-03-08T08:26:26;37.40;;;18.97;;
29500;SDS011;16450;50.288;10.966;2024-03-08T08:29:28;36.20;;;18.33;;
29500;SDS011;16450;50.288;10.966;2024-03-08T08:32:29;35.70;;;19.03;;
29500;SDS011;16450;50.288;10.966;2024-03-08T08:35:31;37.17;;;18.70;;
29500;SDS011;16450;50.288;10.966;2024-03-08T08:38:34;39.83;;;19.50;;
29500;SDS011;16450;50.288;10.966;2024-03-08T08:41:36;42.90;;;20.30;;
29500;SDS011;16450;50.288;10.966;2024-03-08T08:44:37;34.00;;;19.57;;
29500;SDS011;16450;50.288;10.966;2024-03-08T08:47:39;36.43;;;19.80;;
29500;SDS011;16450;50.288;10.966;2024-03-08T08:50:44;38.73;;;19.67;;
29500;SDS011;16450;50.288;10.966;2024-03-08T08:53:46;37.00;;;18.53;;
29500;SDS011;16450;50.288;10.966;2024-03-08T08:56:49;35.13;;;18.93;;
29500;SDS011;16450;50.288;10.966;2024-03-08T08:59:50;38.17;;;19.40;;
29500;SDS011;16450;50.288;10.966;2024-03-08T09:02:52;39.77;;;20.57;;
29500;SDS011;16450;50.288;10.966;2024-03-08T09:05:56;37.77;;;20.27;;
29500;SDS011;16450;50.288;10.966;2024-03-08T09:08:58;38.00;;;19.60;;
29500;SDS011;16450;50.288;10.966;2024-03-08T09:12:02;34.23;;;19.27;;
29500;SDS011;16450;50.288;10.966;2024-03-08T09:15:04;39.43;;;20.63;;
29500;SDS011;16450;50.288;10.966;2024-03-08T09:18:12;36.10;;;20.37;;
29500;SDS011;16450;50.288;10.966;2024-03-08T09:21:14;40.30;;;21.23;;
29500;SDS011;16450;50.288;10.966;2024-03-08T09:24:16;37.83;;;19.33;;
29500;SDS011;16450;50.288;10.966;2024-03-08T09:27:18;35.77;;;20.67;;
29500;SDS011;16450;50.288;10.966;2024-03-08T09:30:21;34.03;;;18.93;;
29500;SDS011;16450;50.288;10.966;2024-03-08T09:33:23;38.73;;;20.47;;
29500;SDS011;16450;50.288;10.966;2024-03-08T09:36:24;34.20;;;19.80;;
29500;SDS011;16450;50.288;10.966;2024-03-08T09:39:26;32.23;;;18.93;;
29500;SDS011;16450;50.288;10.966;2024-03-08T09:42:31;36.20;;;19.27;;
29500;SDS011;16450;50.288;10.966;2024-03-08T09:45:34;32.23;;;19.40;;
29500;SDS011;16450;50.288;10.966;2024-03-08T09:48:37;35.43;;;18.97;;
29500;SDS011;16450;50.288;10.966;2024-03-08T09:51:42;31.73;;;19.23;;
29500;SDS011;16450;50.288;10.966;2024-03-08T09:54:45;30.47;;;18.27;;
29500;SDS011;16450;50.288;10.966;2024-03-08T09:57:49;28.37;;;17.70;;
29500;SDS011;16450;50.288;10.966;2024-03-08T10:01:11;32.43;;;18.20;;
29500;SDS011;16450;50.288;10.966;2024-03-08T10:04:13;29.00;;;17.57;;
29500;SDS011;16450;50.288;10.966;2024-03-08T10:07:15;29.47;;;17.73;;
29500;SDS011;16450;50.288;10.966;2024-03-08T10:10:17;28.70;;;17.77;;
29500;SDS011;16450;50.288;10.966;2024-03-08T10:13:20;31.03;;;17.47;;
29500;SDS011;16450;50.288;10.966;2024-03-08T10:16:22;30.00;;;17.63;;
29500;SDS011;16450;50.288;10.966;2024-03-08T10:19:25;28.73;;;17.37;;
29500;SDS011;16450;50.288;10.966;2024-03-08T10:22:29;29.60;;;16.57;;
29500;SDS011;16450;50.288;10.966;2024-03-08T10:25:32;30.07;;;16.87;;
29500;SDS011;16450;50.288;10.966;2024-03-08T10:28:34;29.97;;;17.77;;
29500;SDS011;16450;50.288;10.966;2024-03-08T10:31:36;30.37;;;18.53;;
29500;SDS011;16450;50.288;10.966;2024-03-08T10:34:41;31.17;;;17.97;;
29500;SDS011;16450;50.288;10.966;2024-03-08T10:37:47;32.10;;;17.37;;
29500;SDS011;16450;50.288;10.966;2024-03-08T10:41:05;30.37;;;17.43;;
29500;SDS011;16450;50.288;10.966;2024-03-08T10:44:18;30.60;;;17.70;;
29500;SDS011;16450;50.288;10.966;2024-03-08T10:47:40;30.53;;;15.97;;
29500;SDS011;16450;50.288;10.966;2024-03-08T10:50:43;26.93;;;16.13;;
29500;SDS011;16450;50.288;10.966;2024-03-08T10:53:48;27.60;;;16.13;;
29500;SDS011;16450;50.288;10.966;2024-03-08T10:56:52;28.47;;;16.43;;
29500;SDS011;16450;50.288;10.966;2024-03-08T10:59:56;27.40;;;16.53;;
29500;SDS011;16450;50.288;10.966;2024-03-08T11:03:00;27.53;;;16.07;;
29500;SDS011;16450;50.288;10.966;2024-03-08T11:06:02;28.33;;;15.63;;
29500;SDS011;16450;50.288;10.966;2024-03-08T11:12:38;30.80;;;16.77;;
29500;SDS011;16450;50.288;10.966;2024-03-08T11:15:40;30.87;;;16.63;;
29500;SDS011;16450;50.288;10.966;2024-03-08T11:18:43;26.63;;;16.30;;
29500;SDS011;16450;50.288;10.966;2024-03-08T11:21:48;25.77;;;15.53;;
29500;SDS011;16450;50.288;10.966;2024-03-08T11:25:02;27.23;;;16.77;;
29500;SDS011;16450;50.288;10.966;2024-03-08T11:28:14;27.40;;;15.90;;
29500;SDS011;16450;50.288;10.966;2024-03-08T11:31:22;26.97;;;15.90;;
29500;SDS011;16450;50.288;10.966;2024-03-08T11:34:26;28.33;;;16.17;;
29500;SDS011;16450;50.288;10.966;2024-03-08T11:37:28;26.77;;;15.03;;
29500;SDS011;16450;50.288;10.966;2024-03-08T11:40:32;26.97;;;16.23;;
29500;SDS011;16450;50.288;10.966;2024-03-08T11:43:36;25.20;;;15.13;;
29500;SDS011;16450;50.288;10.966;2024-03-08T11:46:38;29.17;;;15.90;;
29500;SDS011;16450;50.288;10.966;2024-03-08T11:49:45;25.23;;;15.07;;
29500;SDS011;16450;50.288;10.966;2024-03-08T11:52:50;26.13;;;15.70;;
29500;SDS011;16450;50.288;10.966;2024-03-08T11:55:52;25.77;;;14.73;;
29500;SDS011;16450;50.288;10.966;2024-03-08T11:58:54;28.27;;;15.63;;
29500;SDS011;16450;50.288;10.966;2024-03-08T12:02:01;28.47;;;15.47;;
29500;SDS011;16450;50.288;10.966;2024-03-08T12:05:05;25.80;;;15.27;;
29500;SDS011;16450;50.288;10.966;2024-03-08T12:08:11;26.77;;;16.17;;
29500;SDS011;16450;50.288;10.966;2024-03-08T12:11:14;24.97;;;14.70;;
29500;SDS011;16450;50.288;10.966;2024-03-08T12:14:16;27.13;;;14.07;;
29500;SDS011;16450;50.288;10.966;2024-03-08T12:17:19;25.03;;;14.90;;
29500;SDS011;16450;50.288;10.966;2024-03-08T12:20:22;24.00;;;14.53;;
29500;SDS011;16450;50.288;10.966;2024-03-08T12:23:28;25.17;;;14.53;;
29500;SDS011;16450;50.288;10.966;2024-03-08T12:26:30;26.57;;;14.83;;
29500;SDS011;16450;50.288;10.966;2024-03-08T12:29:33;24.07;;;13.87;;
29500;SDS011;16450;50.288;10.966;2024-03-08T12:32:45;23.60;;;14.37;;
29500;SDS011;16450;50.288;10.966;2024-03-08T12:36:00;23.63;;;13.23;;
29500;SDS011;16450;50.288;10.966;2024-03-08T12:39:02;23.03;;;13.27;;
29500;SDS011;16450;50.288;10.966;2024-03-08T12:42:05;24.97;;;13.37;;
29500;SDS011;16450;50.288;10.966;2024-03-08T12:45:07;21.87;;;12.97;;
29500;SDS011;16450;50.288;10.966;2024-03-08T12:48:14;22.20;;;12.27;;
29500;SDS011;16450;50.288;10.966;2024-03-08T12:51:19;22.43;;;12.90;;
29500;SDS011;16450;50.288;10.966;2024-03-08T12:54:22;22.93;;;12.00;;
29500;SDS011;16450;50.288;10.966;2024-03-08T12:57:25;22.07;;;11.87;;
29500;SDS011;16450;50.288;10.966;2024-03-08T13:00:29;20.33;;;12.23;;
29500;SDS011;16450;50.288;10.966;2024-03-08T13:03:31;19.87;;;11.93;;
29500;SDS011;16450;50.288;10.966;2024-03-08T13:06:35;20.60;;;12.07;;
29500;SDS011;16450;50.288;10.966;2024-03-08T13:09:37;21.20;;;11.57;;
29500;SDS011;16450;50.288;10.966;2024-03-08T13:12:40;22.57;;;11.50;;
29500;SDS011;16450;50.288;10.966;2024-03-08T13:15:43;17.63;;;11.10;;
29500;SDS011;16450;50.288;10.966;2024-03-08T13:18:48;19.03;;;11.80;;
29500;SDS011;16450;50.288;10.966;2024-03-08T13:21:54;17.80;;;10.30;;
29500;SDS011;16450;50.288;10.966;2024-03-08T13:24:56;18.17;;;10.63;;
29500;SDS011;16450;50.288;10.966;2024-03-08T13:27:57;19.20;;;10.53;;
29500;SDS011;16450;50.288;10.966;2024-03-08T13:31:03;16.93;;;10.07;;
29500;SDS011;16450;50.288;10.966;2024-03-08T13:34:09;16.07;;;9.67;;
29500;SDS011;16450;50.288;10.966;2024-03-08T13:37:13;17.30;;;9.70;;
29500;SDS011;16450;50.288;10.966;2024-03-08T13:40:17;16.57;;;9.73;;
29500;SDS011;16450;50.288;10.966;2024-03-08T13:43:22;16.50;;;10.13;;
29500;SDS011;16450;50.288;10.966;2024-03-08T13:46:24;15.87;;;9.73;;
29500;SDS011;16450;50.288;10.966;2024-03-08T13:49:26;18.43;;;10.27;;
29500;SDS011;16450;50.288;10.966;2024-03-08T13:52:28;17.50;;;10.57;;
29500;SDS011;16450;50.288;10.966;2024-03-08T13:55:30;15.77;;;9.33;;
29500;SDS011;16450;50.288;10.966;2024-03-08T13:58:32;13.93;;;8.57;;
29500;SDS011;16450;50.288;10.966;2024-03-08T14:01:34;13.73;;;8.33;;
29500;SDS011;16450;50.288;10.966;2024-03-08T14:04:37;16.60;;;9.77;;
29500;SDS011;16450;50.288;10.966;2024-03-08T14:07:39;17.30;;;9.70;;
29500;SDS011;16450;50.288;10.966;2024-03-08T14:10:41;17.43;;;9.27;;
29500;SDS011;16450;50.288;10.966;2024-03-08T14:13:44;15.27;;;9.20;;
29500;SDS011;16450;50.288;10.966;2024-03-08T14:16:47;13.50;;;9.10;;
29500;SDS011;16450;50.288;10.966;2024-03-08T14:19:49;14.27;;;9.03;;
29500;SDS011;16450;50.288;10.966;2024-03-08T14:22:52;13.33;;;8.63;;
29500;SDS011;16450;50.288;10.966;2024-03-08T14:25:54;13.40;;;8.37;;
29500;SDS011;16450;50.288;10.966;2024-03-08T14:28:57;16.13;;;8.43;;
29500;SDS011;16450;50.288;10.966;2024-03-08T14:31:59;13.27;;;8.40;;
29500;SDS011;16450;50.288;10.966;2024-03-08T14:35:02;13.80;;;8.57;;
29500;SDS011;16450;50.288;10.966;2024-03-08T14:38:04;12.80;;;7.83;;
29500;SDS011;16450;50.288;10.966;2024-03-08T14:41:09;15.97;;;8.40;;
29500;SDS011;16450;50.288;10.966;2024-03-08T14:44:11;12.67;;;7.70;;
29500;SDS011;16450;50.288;10.966;2024-03-08T14:47:13;14.43;;;8.13;;
29500;SDS011;16450;50.288;10.966;2024-03-08T14:50:16;13.03;;;7.43;;
29500;SDS011;16450;50.288;10.966;2024-03-08T14:53:19;14.20;;;7.97;;
29500;SDS011;16450;50.288;10.966;2024-03-08T14:56:21;15.13;;;7.90;;
29500;SDS011;16450;50.288;10.966;2024-03-08T14:59:24;13.43;;;8.07;;
29500;SDS011;16450;50.288;10.966;2024-03-08T15:02:28;12.37;;;7.53;;
29500;SDS011;16450;50.288;10.966;2024-03-08T15:05:30;11.63;;;7.20;;
29500;SDS011;16450;50.288;10.966;2024-03-08T15:08:34;14.97;;;7.83;;
29500;SDS011;16450;50.288;10.966;2024-03-08T15:11:38;14.93;;;8.00;;
29500;SDS011;16450;50.288;10.966;2024-03-08T15:14:41;13.50;;;7.53;;
29500;SDS011;16450;50.288;10.966;2024-03-08T15:17:45;14.20;;;8.23;;
29500;SDS011;16450;50.288;10.966;2024-03-08T15:20:48;16.90;;;8.37;;
29500;SDS011;16450;50.288;10.966;2024-03-08T15:23:50;14.27;;;7.90;;
29500;SDS011;16450;50.288;10.966;2024-03-08T15:26:53;16.20;;;8.47;;
29500;SDS011;16450;50.288;10.966;2024-03-08T15:29:56;13.20;;;8.20;;
29500;SDS011;16450;50.288;10.966;2024-03-08T15:33:00;14.43;;;8.20;;
29500;SDS011;16450;50.288;10.966;2024-03-08T15:36:05;16.13;;;8.43;;
29500;SDS011;16450;50.288;10.966;2024-03-08T15:39:11;15.93;;;9.07;;
29500;SDS011;16450;50.288;10.966;2024-03-08T15:42:12;14.53;;;9.00;;
29500;SDS011;16450;50.288;10.966;2024-03-08T15:45:15;14.97;;;8.33;;
29500;SDS011;16450;50.288;10.966;2024-03-08T15:48:17;15.00;;;9.20;;
29500;SDS011;16450;50.288;10.966;2024-03-08T15:51:19;16.23;;;8.80;;
29500;SDS011;16450;50.288;10.966;2024-03-08T15:54:21;15.97;;;8.80;;
29500;SDS011;16450;50.288;10.966;2024-03-08T15:57:23;17.07;;;9.47;;
29500;SDS011;16450;50.288;10.966;2024-03-08T16:00:26;16.20;;;8.80;;
29500;SDS011;16450;50.288;10.966;2024-03-08T16:03:39;15.10;;;9.10;;
29500;SDS011;16450;50.288;10.966;2024-03-08T16:06:40;15.40;;;9.13;;
29500;SDS011;16450;50.288;10.966;2024-03-08T16:09:42;16.30;;;9.57;;
29500;SDS011;16450;50.288;10.966;2024-03-08T16:12:44;18.27;;;9.60;;
29500;SDS011;16450;50.288;10.966;2024-03-08T16:15:46;18.33;;;10.13;;
29500;SDS011;16450;50.288;10.966;2024-03-08T16:18:52;17.77;;;9.40;;
29500;SDS011;16450;50.288;10.966;2024-03-08T16:21:54;16.87;;;9.37;;
29500;SDS011;16450;50.288;10.966;2024-03-08T16:24:57;17.93;;;9.30;;
29500;SDS011;16450;50.288;10.966;2024-03-08T16:28:00;16.63;;;9.07;;
29500;SDS011;16450;50.288;10.966;2024-03-08T16:31:02;16.17;;;9.40;;
29500;SDS011;16450;50.288;10.966;2024-03-08T16:34:06;17.07;;;10.10;;
29500;SDS011;16450;50.288;10.966;2024-03-08T16:37:10;15.73;;;9.40;;
29500;SDS011;16450;50.288;10.966;2024-03-08T16:40:12;16.87;;;9.70;;
29500;SDS011;16450;50.288;10.966;2024-03-08T16:43:18;16.87;;;9.10;;
29500;SDS011;16450;50.288;10.966;2024-03-08T16:46:20;13.80;;;8.73;;
29500;SDS011;16450;50.288;10.966;2024-03-08T16:49:22;15.27;;;8.83;;
29500;SDS011;16450;50.288;10.966;2024-03-08T16:52:25;14.47;;;8.07;;
29500;SDS011;16450;50.288;10.966;2024-03-08T16:55:28;16.93;;;9.50;;
29500;SDS011;16450;50.288;10.966;2024-03-08T16:58:31;15.67;;;8.90;;
29500;SDS011;16450;50.288;10.966;2024-03-08T17:01:35;15.53;;;9.17;;
29500;SDS011;16450;50.288;10.966;2024-03-08T17:04:40;17.17;;;9.63;;
29500;SDS011;16450;50.288;10.966;2024-03-08T17:07:43;22.67;;;11.97;;
29500;SDS011;16450;50.288;10.966;2024-03-08T17:10:49;19.43;;;10.67;;
29500;SDS011;16450;50.288;10.966;2024-03-08T17:13:51;14.83;;;8.97;;
29500;SDS011;16450;50.288;10.966;2024-03-08T17:16:53;17.40;;;9.67;;
29500;SDS011;16450;50.288;10.966;2024-03-08T17:19:56;18.03;;;9.23;;
29500;SDS011;16450;50.288;10.966;2024-03-08T17:22:58;16.23;;;9.03;;
29500;SDS011;16450;50.288;10.966;2024-03-08T17:26:03;17.93;;;9.43;;
29500;SDS011;16450;50.288;10.966;2024-03-08T17:29:09;19.33;;;10.20;;
29500;SDS011;16450;50.288;10.966;2024-03-08T17:32:11;19.60;;;10.57;;
29500;SDS011;16450;50.288;10.966;2024-03-08T17:35:13;17.93;;;9.80;;
29500;SDS011;16450;50.288;10.966;2024-03-08T17:38:19;19.43;;;10.70;;
29500;SDS011;16450;50.288;10.966;2024-03-08T17:41:23;18.70;;;10.90;;